Terminal Aerodrome Forecast
Issued by NWS

Home | Current Version | Previous Version | Text Only | Print | Product List | Glossary On
Versions: 1 2 3 4 5 6 7 8 9 10 11 12 13 14
000
FTUS45 KRIW 270500
TAFWRL
TAF
KWRL 270529Z 2706/2806 VRB04KT P6SM VCFG SCT008 OVC080
      TEMPO 2706/2708 4SM BR BKN008
     FM270800 VRB04KT 2SM BR SCT004
     FM271000 VRB03KT 1SM BR BKN004
     FM271600 VRB04KT P6SM VCFG SCT005
     FM271900 VRB05KT P6SM SCT040 BKN150=

USA.gov is the U.S. government's official web portal to all federal, state and local government web resources and services.